sensor_id;sensor_type;location;lat;lon;timestamp;P1;durP1;ratioP1;P2;durP2;ratioP2
31782;SDS011;18351;47.560;9.708;2023-05-01T00:00:00;9.10;;;7.13;;
31782;SDS011;18351;47.560;9.708;2023-05-01T00:02:28;10.63;;;6.88;;
31782;SDS011;18351;47.560;9.708;2023-05-01T00:04:54;8.95;;;7.72;;
31782;SDS011;18351;47.560;9.708;2023-05-01T00:07:20;11.98;;;7.93;;
31782;SDS011;18351;47.560;9.708;2023-05-01T00:09:46;10.70;;;8.07;;
31782;SDS011;18351;47.560;9.708;2023-05-01T00:12:12;12.07;;;8.20;;
31782;SDS011;18351;47.560;9.708;2023-05-01T00:14:37;10.63;;;8.82;;
31782;SDS011;18351;47.560;9.708;2023-05-01T00:17:03;10.90;;;8.55;;
31782;SDS011;18351;47.560;9.708;2023-05-01T00:19:28;10.10;;;8.13;;
31782;SDS011;18351;47.560;9.708;2023-05-01T00:21:54;12.13;;;8.95;;
31782;SDS011;18351;47.560;9.708;2023-05-01T00:24:19;11.63;;;8.13;;
31782;SDS011;18351;47.560;9.708;2023-05-01T00:26:45;11.02;;;8.98;;
31782;SDS011;18351;47.560;9.708;2023-05-01T00:29:11;10.25;;;8.82;;
31782;SDS011;18351;47.560;9.708;2023-05-01T00:31:37;13.15;;;9.48;;
31782;SDS011;18351;47.560;9.708;2023-05-01T00:34:02;13.02;;;9.48;;
31782;SDS011;18351;47.560;9.708;2023-05-01T00:36:29;13.02;;;10.13;;
31782;SDS011;18351;47.560;9.708;2023-05-01T00:38:55;13.20;;;10.50;;
31782;SDS011;18351;47.560;9.708;2023-05-01T00:41:21;12.85;;;10.15;;
31782;SDS011;18351;47.560;9.708;2023-05-01T00:43:46;14.15;;;10.05;;
31782;SDS011;18351;47.560;9.708;2023-05-01T00:46:12;13.55;;;10.30;;
31782;SDS011;18351;47.560;9.708;2023-05-01T00:48:38;14.30;;;10.18;;
31782;SDS011;18351;47.560;9.708;2023-05-01T00:51:04;14.02;;;11.77;;
31782;SDS011;18351;47.560;9.708;2023-05-01T00:53:32;13.45;;;10.00;;
31782;SDS011;18351;47.560;9.708;2023-05-01T00:55:57;18.80;;;11.50;;
31782;SDS011;18351;47.560;9.708;2023-05-01T00:58:24;16.17;;;10.02;;
31782;SDS011;18351;47.560;9.708;2023-05-01T01:00:50;13.40;;;10.95;;
31782;SDS011;18351;47.560;9.708;2023-05-01T01:03:17;16.38;;;11.75;;
31782;SDS011;18351;47.560;9.708;2023-05-01T01:05:49;16.38;;;11.43;;
31782;SDS011;18351;47.560;9.708;2023-05-01T01:08:25;13.98;;;10.90;;
31782;SDS011;18351;47.560;9.708;2023-05-01T01:10:56;14.13;;;11.52;;
31782;SDS011;18351;47.560;9.708;2023-05-01T01:16:06;16.48;;;11.40;;
31782;SDS011;18351;47.560;9.708;2023-05-01T01:21:07;14.35;;;10.80;;
31782;SDS011;18351;47.560;9.708;2023-05-01T01:24:16;15.55;;;11.85;;
31782;SDS011;18351;47.560;9.708;2023-05-01T01:29:38;14.27;;;11.45;;
31782;SDS011;18351;47.560;9.708;2023-05-01T01:35:39;18.50;;;11.82;;
31782;SDS011;18351;47.560;9.708;2023-05-01T01:38:18;16.25;;;12.45;;
31782;SDS011;18351;47.560;9.708;2023-05-01T01:43:24;13.32;;;11.13;;
31782;SDS011;18351;47.560;9.708;2023-05-01T01:45:55;14.63;;;11.02;;
31782;SDS011;18351;47.560;9.708;2023-05-01T01:48:26;15.57;;;11.07;;
31782;SDS011;18351;47.560;9.708;2023-05-01T01:50:57;16.23;;;11.67;;
31782;SDS011;18351;47.560;9.708;2023-05-01T01:53:24;14.98;;;11.95;;
31782;SDS011;18351;47.560;9.708;2023-05-01T01:55:52;14.50;;;10.95;;
31782;SDS011;18351;47.560;9.708;2023-05-01T01:58:20;13.25;;;11.70;;
31782;SDS011;18351;47.560;9.708;2023-05-01T02:00:50;16.27;;;12.40;;
31782;SDS011;18351;47.560;9.708;2023-05-01T02:03:17;13.45;;;11.35;;
31782;SDS011;18351;47.560;9.708;2023-05-01T02:05:44;15.13;;;12.02;;
31782;SDS011;18351;47.560;9.708;2023-05-01T02:08:12;12.70;;;11.07;;
31782;SDS011;18351;47.560;9.708;2023-05-01T02:10:39;14.65;;;11.88;;
31782;SDS011;18351;47.560;9.708;2023-05-01T02:13:06;14.38;;;12.35;;
31782;SDS011;18351;47.560;9.708;2023-05-01T02:15:33;13.95;;;11.60;;
31782;SDS011;18351;47.560;9.708;2023-05-01T02:18:00;18.70;;;12.85;;
31782;SDS011;18351;47.560;9.708;2023-05-01T02:20:27;14.98;;;12.10;;
31782;SDS011;18351;47.560;9.708;2023-05-01T02:22:54;14.93;;;11.32;;
31782;SDS011;18351;47.560;9.708;2023-05-01T02:25:21;17.55;;;11.55;;
31782;SDS011;18351;47.560;9.708;2023-05-01T02:27:49;14.68;;;11.75;;
31782;SDS011;18351;47.560;9.708;2023-05-01T02:30:24;14.70;;;12.52;;
31782;SDS011;18351;47.560;9.708;2023-05-01T02:32:50;15.40;;;12.52;;
31782;SDS011;18351;47.560;9.708;2023-05-01T02:35:16;16.10;;;12.68;;
31782;SDS011;18351;47.560;9.708;2023-05-01T02:37:41;20.30;;;13.38;;
31782;SDS011;18351;47.560;9.708;2023-05-01T02:40:09;15.55;;;12.18;;
31782;SDS011;18351;47.560;9.708;2023-05-01T02:42:36;14.80;;;12.20;;
31782;SDS011;18351;47.560;9.708;2023-05-01T02:45:04;14.93;;;12.60;;
31782;SDS011;18351;47.560;9.708;2023-05-01T02:47:32;14.25;;;11.73;;
31782;SDS011;18351;47.560;9.708;2023-05-01T02:50:01;13.57;;;11.90;;
31782;SDS011;18351;47.560;9.708;2023-05-01T02:52:28;17.25;;;12.00;;
31782;SDS011;18351;47.560;9.708;2023-05-01T02:54:54;17.25;;;12.13;;
31782;SDS011;18351;47.560;9.708;2023-05-01T02:57:20;15.13;;;12.30;;
31782;SDS011;18351;47.560;9.708;2023-05-01T02:59:47;15.35;;;12.13;;
31782;SDS011;18351;47.560;9.708;2023-05-01T03:02:12;15.77;;;12.02;;
31782;SDS011;18351;47.560;9.708;2023-05-01T03:04:39;16.13;;;12.00;;
31782;SDS011;18351;47.560;9.708;2023-05-01T03:07:06;14.68;;;12.68;;
31782;SDS011;18351;47.560;9.708;2023-05-01T03:09:32;15.18;;;12.55;;
31782;SDS011;18351;47.560;9.708;2023-05-01T03:11:57;20.70;;;14.60;;
31782;SDS011;18351;47.560;9.708;2023-05-01T03:14:23;14.98;;;11.90;;
31782;SDS011;18351;47.560;9.708;2023-05-01T03:16:49;16.15;;;12.32;;
31782;SDS011;18351;47.560;9.708;2023-05-01T03:19:14;14.50;;;12.20;;
31782;SDS011;18351;47.560;9.708;2023-05-01T03:21:40;14.48;;;11.98;;
31782;SDS011;18351;47.560;9.708;2023-05-01T03:24:05;14.98;;;11.32;;
31782;SDS011;18351;47.560;9.708;2023-05-01T03:26:32;12.95;;;11.55;;
31782;SDS011;18351;47.560;9.708;2023-05-01T03:28:57;14.65;;;11.95;;
31782;SDS011;18351;47.560;9.708;2023-05-01T03:31:23;14.65;;;11.30;;
31782;SDS011;18351;47.560;9.708;2023-05-01T03:33:49;13.05;;;11.45;;
31782;SDS011;18351;47.560;9.708;2023-05-01T03:36:14;14.85;;;11.93;;
31782;SDS011;18351;47.560;9.708;2023-05-01T03:38:40;15.32;;;12.18;;
31782;SDS011;18351;47.560;9.708;2023-05-01T03:41:06;15.70;;;12.77;;
31782;SDS011;18351;47.560;9.708;2023-05-01T03:43:32;14.70;;;12.00;;
31782;SDS011;18351;47.560;9.708;2023-05-01T03:45:57;14.38;;;11.90;;
31782;SDS011;18351;47.560;9.708;2023-05-01T03:48:24;14.55;;;11.25;;
31782;SDS011;18351;47.560;9.708;2023-05-01T03:50:50;15.25;;;12.77;;
31782;SDS011;18351;47.560;9.708;2023-05-01T03:53:16;17.58;;;13.30;;
31782;SDS011;18351;47.560;9.708;2023-05-01T03:55:42;15.82;;;12.13;;
31782;SDS011;18351;47.560;9.708;2023-05-01T03:58:08;17.33;;;14.07;;
31782;SDS011;18351;47.560;9.708;2023-05-01T04:00:37;17.00;;;13.75;;
31782;SDS011;18351;47.560;9.708;2023-05-01T04:03:03;16.88;;;11.93;;
31782;SDS011;18351;47.560;9.708;2023-05-01T04:05:29;18.35;;;12.90;;
31782;SDS011;18351;47.560;9.708;2023-05-01T04:07:55;18.27;;;13.73;;
31782;SDS011;18351;47.560;9.708;2023-05-01T04:10:21;18.98;;;13.55;;
31782;SDS011;18351;47.560;9.708;2023-05-01T04:12:47;18.45;;;13.13;;
31782;SDS011;18351;47.560;9.708;2023-05-01T04:15:12;19.67;;;14.00;;
31782;SDS011;18351;47.560;9.708;2023-05-01T04:17:38;18.10;;;13.18;;
31782;SDS011;18351;47.560;9.708;2023-05-01T04:20:04;18.00;;;14.23;;
31782;SDS011;18351;47.560;9.708;2023-05-01T04:22:30;16.58;;;13.27;;
31782;SDS011;18351;47.560;9.708;2023-05-01T04:24:56;18.92;;;14.40;;
31782;SDS011;18351;47.560;9.708;2023-05-01T04:27:22;18.08;;;14.55;;
31782;SDS011;18351;47.560;9.708;2023-05-01T04:29:49;19.08;;;14.73;;
31782;SDS011;18351;47.560;9.708;2023-05-01T04:32:15;17.95;;;14.55;;
31782;SDS011;18351;47.560;9.708;2023-05-01T04:34:41;20.27;;;14.48;;
31782;SDS011;18351;47.560;9.708;2023-05-01T04:37:10;17.42;;;13.80;;
31782;SDS011;18351;47.560;9.708;2023-05-01T04:39:36;19.13;;;15.02;;
31782;SDS011;18351;47.560;9.708;2023-05-01T04:42:02;18.85;;;14.57;;
31782;SDS011;18351;47.560;9.708;2023-05-01T04:44:28;19.95;;;15.75;;
31782;SDS011;18351;47.560;9.708;2023-05-01T04:46:54;34.30;;;22.10;;
31782;SDS011;18351;47.560;9.708;2023-05-01T04:49:23;24.33;;;16.55;;
31782;SDS011;18351;47.560;9.708;2023-05-01T04:51:48;25.45;;;17.45;;
31782;SDS011;18351;47.560;9.708;2023-05-01T04:54:14;23.52;;;16.42;;
31782;SDS011;18351;47.560;9.708;2023-05-01T04:56:40;19.42;;;15.00;;
31782;SDS011;18351;47.560;9.708;2023-05-01T04:59:05;19.60;;;14.52;;
31782;SDS011;18351;47.560;9.708;2023-05-01T05:01:31;16.25;;;13.52;;
31782;SDS011;18351;47.560;9.708;2023-05-01T05:03:56;18.00;;;14.18;;
31782;SDS011;18351;47.560;9.708;2023-05-01T05:06:22;19.10;;;15.40;;
31782;SDS011;18351;47.560;9.708;2023-05-01T05:08:47;20.42;;;15.20;;
31782;SDS011;18351;47.560;9.708;2023-05-01T05:11:16;18.98;;;14.48;;
31782;SDS011;18351;47.560;9.708;2023-05-01T05:13:45;21.08;;;14.02;;
31782;SDS011;18351;47.560;9.708;2023-05-01T05:16:10;20.30;;;15.32;;
31782;SDS011;18351;47.560;9.708;2023-05-01T05:18:36;18.50;;;15.05;;
31782;SDS011;18351;47.560;9.708;2023-05-01T05:21:03;21.15;;;15.00;;
31782;SDS011;18351;47.560;9.708;2023-05-01T05:23:32;19.38;;;13.77;;
31782;SDS011;18351;47.560;9.708;2023-05-01T05:25:58;17.27;;;14.40;;
31782;SDS011;18351;47.560;9.708;2023-05-01T05:28:28;19.45;;;14.25;;
31782;SDS011;18351;47.560;9.708;2023-05-01T05:30:55;17.17;;;14.32;;
31782;SDS011;18351;47.560;9.708;2023-05-01T05:33:20;17.30;;;13.43;;
31782;SDS011;18351;47.560;9.708;2023-05-01T05:35:48;19.33;;;14.75;;
31782;SDS011;18351;47.560;9.708;2023-05-01T05:38:17;19.60;;;15.70;;
31782;SDS011;18351;47.560;9.708;2023-05-01T05:40:43;21.02;;;14.68;;
31782;SDS011;18351;47.560;9.708;2023-05-01T05:43:08;19.35;;;14.43;;
31782;SDS011;18351;47.560;9.708;2023-05-01T05:45:34;18.40;;;14.43;;
31782;SDS011;18351;47.560;9.708;2023-05-01T05:48:01;15.88;;;13.85;;
31782;SDS011;18351;47.560;9.708;2023-05-01T05:50:27;17.38;;;14.13;;
31782;SDS011;18351;47.560;9.708;2023-05-01T05:52:53;18.80;;;13.95;;
31782;SDS011;18351;47.560;9.708;2023-05-01T05:55:18;21.50;;;15.10;;
31782;SDS011;18351;47.560;9.708;2023-05-01T05:57:44;17.50;;;14.35;;
31782;SDS011;18351;47.560;9.708;2023-05-01T06:00:10;17.45;;;14.15;;
31782;SDS011;18351;47.560;9.708;2023-05-01T06:02:36;19.98;;;14.50;;
31782;SDS011;18351;47.560;9.708;2023-05-01T06:05:02;18.88;;;14.10;;
31782;SDS011;18351;47.560;9.708;2023-05-01T06:07:28;16.55;;;14.10;;
31782;SDS011;18351;47.560;9.708;2023-05-01T06:09:53;20.38;;;14.77;;
31782;SDS011;18351;47.560;9.708;2023-05-01T06:12:19;16.13;;;12.80;;
31782;SDS011;18351;47.560;9.708;2023-05-01T06:14:45;17.40;;;13.77;;
31782;SDS011;18351;47.560;9.708;2023-05-01T06:17:11;19.23;;;14.52;;
31782;SDS011;18351;47.560;9.708;2023-05-01T06:19:36;23.85;;;15.07;;
31782;SDS011;18351;47.560;9.708;2023-05-01T06:22:02;16.90;;;14.57;;
31782;SDS011;18351;47.560;9.708;2023-05-01T06:24:27;17.05;;;13.75;;
31782;SDS011;18351;47.560;9.708;2023-05-01T06:26:53;15.93;;;12.82;;
31782;SDS011;18351;47.560;9.708;2023-05-01T06:29:18;17.42;;;13.65;;
31782;SDS011;18351;47.560;9.708;2023-05-01T06:31:44;17.10;;;13.32;;
31782;SDS011;18351;47.560;9.708;2023-05-01T06:34:09;18.02;;;13.80;;
31782;SDS011;18351;47.560;9.708;2023-05-01T06:36:35;16.98;;;12.90;;
31782;SDS011;18351;47.560;9.708;2023-05-01T06:39:01;19.35;;;13.45;;
31782;SDS011;18351;47.560;9.708;2023-05-01T06:41:26;16.88;;;13.38;;
31782;SDS011;18351;47.560;9.708;2023-05-01T06:43:52;17.50;;;13.30;;
31782;SDS011;18351;47.560;9.708;2023-05-01T06:46:18;16.70;;;13.52;;
31782;SDS011;18351;47.560;9.708;2023-05-01T06:48:43;19.35;;;13.57;;
31782;SDS011;18351;47.560;9.708;2023-05-01T06:51:09;16.42;;;11.88;;
31782;SDS011;18351;47.560;9.708;2023-05-01T06:53:34;15.52;;;13.20;;
31782;SDS011;18351;47.560;9.708;2023-05-01T06:56:01;15.88;;;12.93;;
31782;SDS011;18351;47.560;9.708;2023-05-01T06:58:27;15.82;;;12.57;;
31782;SDS011;18351;47.560;9.708;2023-05-01T07:00:52;14.27;;;12.52;;
31782;SDS011;18351;47.560;9.708;2023-05-01T07:03:18;15.40;;;13.18;;
31782;SDS011;18351;47.560;9.708;2023-05-01T07:05:43;18.90;;;13.13;;
31782;SDS011;18351;47.560;9.708;2023-05-01T07:08:09;14.65;;;13.05;;
31782;SDS011;18351;47.560;9.708;2023-05-01T07:10:35;17.75;;;14.38;;
31782;SDS011;18351;47.560;9.708;2023-05-01T07:13:00;16.20;;;12.68;;
31782;SDS011;18351;47.560;9.708;2023-05-01T07:15:26;20.58;;;14.05;;
31782;SDS011;18351;47.560;9.708;2023-05-01T07:17:51;17.58;;;13.57;;
31782;SDS011;18351;47.560;9.708;2023-05-01T07:20:17;16.55;;;13.23;;
31782;SDS011;18351;47.560;9.708;2023-05-01T07:22:42;19.25;;;14.55;;
31782;SDS011;18351;47.560;9.708;2023-05-01T07:25:08;20.25;;;14.68;;
31782;SDS011;18351;47.560;9.708;2023-05-01T07:27:34;17.05;;;12.65;;
31782;SDS011;18351;47.560;9.708;2023-05-01T07:29:59;15.93;;;11.95;;
31782;SDS011;18351;47.560;9.708;2023-05-01T07:32:28;15.68;;;12.50;;
31782;SDS011;18351;47.560;9.708;2023-05-01T07:34:54;14.27;;;11.80;;
31782;SDS011;18351;47.560;9.708;2023-05-01T07:37:20;14.57;;;12.23;;
31782;SDS011;18351;47.560;9.708;2023-05-01T07:39:45;16.23;;;12.38;;
31782;SDS011;18351;47.560;9.708;2023-05-01T07:42:11;17.27;;;13.50;;
31782;SDS011;18351;47.560;9.708;2023-05-01T07:44:37;16.45;;;13.52;;
31782;SDS011;18351;47.560;9.708;2023-05-01T07:47:03;14.43;;;12.48;;
31782;SDS011;18351;47.560;9.708;2023-05-01T07:49:34;21.20;;;13.07;;
31782;SDS011;18351;47.560;9.708;2023-05-01T07:52:01;14.30;;;12.70;;
31782;SDS011;18351;47.560;9.708;2023-05-01T07:54:27;16.85;;;12.30;;
31782;SDS011;18351;47.560;9.708;2023-05-01T07:56:52;14.80;;;12.13;;
31782;SDS011;18351;47.560;9.708;2023-05-01T07:59:18;15.40;;;12.48;;
31782;SDS011;18351;47.560;9.708;2023-05-01T08:01:43;15.35;;;13.13;;
31782;SDS011;18351;47.560;9.708;2023-05-01T08:04:09;14.85;;;12.57;;
31782;SDS011;18351;47.560;9.708;2023-05-01T08:06:35;15.85;;;13.52;;
31782;SDS011;18351;47.560;9.708;2023-05-01T08:09:00;15.75;;;13.40;;
31782;SDS011;18351;47.560;9.708;2023-05-01T08:11:26;14.95;;;12.75;;
31782;SDS011;18351;47.560;9.708;2023-05-01T08:13:53;19.55;;;13.35;;
31782;SDS011;18351;47.560;9.708;2023-05-01T08:16:19;14.50;;;12.18;;
31782;SDS011;18351;47.560;9.708;2023-05-01T08:18:45;14.73;;;12.13;;
31782;SDS011;18351;47.560;9.708;2023-05-01T08:21:10;13.43;;;11.68;;
31782;SDS011;18351;47.560;9.708;2023-05-01T08:23:36;14.30;;;12.23;;
31782;SDS011;18351;47.560;9.708;2023-05-01T08:26:02;16.13;;;12.85;;
31782;SDS011;18351;47.560;9.708;2023-05-01T08:28:28;17.23;;;12.73;;
31782;SDS011;18351;47.560;9.708;2023-05-01T08:30:54;14.07;;;11.68;;
31782;SDS011;18351;47.560;9.708;2023-05-01T08:33:19;13.15;;;11.57;;
31782;SDS011;18351;47.560;9.708;2023-05-01T08:35:45;15.13;;;12.25;;
31782;SDS011;18351;47.560;9.708;2023-05-01T08:38:10;12.70;;;11.40;;
31782;SDS011;18351;47.560;9.708;2023-05-01T08:40:37;12.13;;;10.82;;
31782;SDS011;18351;47.560;9.708;2023-05-01T08:43:04;17.00;;;12.20;;
31782;SDS011;18351;47.560;9.708;2023-05-01T08:45:31;14.05;;;12.48;;
31782;SDS011;18351;47.560;9.708;2023-05-01T08:48:05;14.85;;;11.95;;
31782;SDS011;18351;47.560;9.708;2023-05-01T08:50:34;16.15;;;12.15;;
31782;SDS011;18351;47.560;9.708;2023-05-01T08:53:01;13.80;;;10.98;;
31782;SDS011;18351;47.560;9.708;2023-05-01T08:55:29;14.23;;;11.10;;
31782;SDS011;18351;47.560;9.708;2023-05-01T08:57:55;14.60;;;12.10;;
31782;SDS011;18351;47.560;9.708;2023-05-01T09:00:22;15.23;;;11.23;;
31782;SDS011;18351;47.560;9.708;2023-05-01T09:02:49;14.73;;;11.63;;
31782;SDS011;18351;47.560;9.708;2023-05-01T09:05:15;15.93;;;13.13;;
31782;SDS011;18351;47.560;9.708;2023-05-01T09:07:42;13.55;;;11.63;;
31782;SDS011;18351;47.560;9.708;2023-05-01T09:10:10;13.20;;;11.75;;
31782;SDS011;18351;47.560;9.708;2023-05-01T09:12:40;15.52;;;12.00;;
31782;SDS011;18351;47.560;9.708;2023-05-01T09:15:08;13.82;;;11.95;;
31782;SDS011;18351;47.560;9.708;2023-05-01T09:17:34;16.98;;;12.27;;
31782;SDS011;18351;47.560;9.708;2023-05-01T09:20:01;15.77;;;12.75;;
31782;SDS011;18351;47.560;9.708;2023-05-01T09:22:30;15.95;;;11.95;;
31782;SDS011;18351;47.560;9.708;2023-05-01T09:24:56;17.80;;;14.02;;
31782;SDS011;18351;47.560;9.708;2023-05-01T09:27:23;14.85;;;12.05;;
31782;SDS011;18351;47.560;9.708;2023-05-01T09:29:51;14.00;;;11.80;;
31782;SDS011;18351;47.560;9.708;2023-05-01T09:34:48;13.10;;;11.10;;
31782;SDS011;18351;47.560;9.708;2023-05-01T09:40:25;14.35;;;11.73;;
31782;SDS011;18351;47.560;9.708;2023-05-01T09:42:51;14.32;;;11.20;;
31782;SDS011;18351;47.560;9.708;2023-05-01T09:45:17;12.20;;;10.75;;
31782;SDS011;18351;47.560;9.708;2023-05-01T09:47:44;14.18;;;11.65;;
31782;SDS011;18351;47.560;9.708;2023-05-01T09:50:29;12.75;;;10.15;;
31782;SDS011;18351;47.560;9.708;2023-05-01T09:52:56;15.85;;;12.10;;
31782;SDS011;18351;47.560;9.708;2023-05-01T09:55:21;14.50;;;12.18;;
31782;SDS011;18351;47.560;9.708;2023-05-01T09:57:48;14.60;;;11.52;;
31782;SDS011;18351;47.560;9.708;2023-05-01T10:00:14;17.65;;;11.90;;
31782;SDS011;18351;47.560;9.708;2023-05-01T10:02:41;14.95;;;11.65;;
31782;SDS011;18351;47.560;9.708;2023-05-01T10:05:08;15.45;;;12.13;;
31782;SDS011;18351;47.560;9.708;2023-05-01T10:07:34;16.63;;;12.60;;
31782;SDS011;18351;47.560;9.708;2023-05-01T10:12:42;15.55;;;13.27;;
31782;SDS011;18351;47.560;9.708;2023-05-01T10:15:08;14.75;;;12.73;;
31782;SDS011;18351;47.560;9.708;2023-05-01T10:17:34;16.67;;;13.20;;
31782;SDS011;18351;47.560;9.708;2023-05-01T10:20:00;13.63;;;12.23;;
31782;SDS011;18351;47.560;9.708;2023-05-01T10:22:26;14.77;;;12.30;;
31782;SDS011;18351;47.560;9.708;2023-05-01T10:24:52;16.15;;;12.07;;
31782;SDS011;18351;47.560;9.708;2023-05-01T10:27:18;14.10;;;12.57;;
31782;SDS011;18351;47.560;9.708;2023-05-01T10:29:46;12.68;;;10.85;;
31782;SDS011;18351;47.560;9.708;2023-05-01T10:32:16;13.25;;;11.95;;
31782;SDS011;18351;47.560;9.708;2023-05-01T10:34:42;14.73;;;12.20;;
31782;SDS011;18351;47.560;9.708;2023-05-01T10:37:15;14.25;;;12.10;;
31782;SDS011;18351;47.560;9.708;2023-05-01T10:39:45;14.93;;;12.07;;
31782;SDS011;18351;47.560;9.708;2023-05-01T10:42:11;15.25;;;11.75;;
31782;SDS011;18351;47.560;9.708;2023-05-01T10:44:39;12.65;;;11.27;;
31782;SDS011;18351;47.560;9.708;2023-05-01T10:50:04;14.75;;;12.38;;
31782;SDS011;18351;47.560;9.708;2023-05-01T10:55:46;13.13;;;11.15;;
31782;SDS011;18351;47.560;9.708;2023-05-01T10:58:14;11.27;;;10.07;;
31782;SDS011;18351;47.560;9.708;2023-05-01T11:03:52;12.02;;;10.35;;
31782;SDS011;18351;47.560;9.708;2023-05-01T11:06:17;11.32;;;9.05;;
31782;SDS011;18351;47.560;9.708;2023-05-01T11:08:43;11.05;;;9.77;;
31782;SDS011;18351;47.560;9.708;2023-05-01T11:14:02;11.27;;;10.00;;
31782;SDS011;18351;47.560;9.708;2023-05-01T11:18:59;12.38;;;9.95;;
31782;SDS011;18351;47.560;9.708;2023-05-01T11:21:31;14.30;;;8.70;;
31782;SDS011;18351;47.560;9.708;2023-05-01T11:24:07;11.63;;;9.73;;
31782;SDS011;18351;47.560;9.708;2023-05-01T11:26:40;12.68;;;9.75;;
31782;SDS011;18351;47.560;9.708;2023-05-01T11:29:07;11.48;;;10.07;;
31782;SDS011;18351;47.560;9.708;2023-05-01T11:31:37;10.48;;;9.20;;
31782;SDS011;18351;47.560;9.708;2023-05-01T11:34:03;10.82;;;9.73;;
31782;SDS011;18351;47.560;9.708;2023-05-01T11:36:45;8.90;;;8.00;;
31782;SDS011;18351;47.560;9.708;2023-05-01T11:39:13;9.77;;;8.73;;
31782;SDS011;18351;47.560;9.708;2023-05-01T11:41:39;8.98;;;8.07;;
31782;SDS011;18351;47.560;9.708;2023-05-01T11:44:05;10.38;;;8.63;;
31782;SDS011;18351;47.560;9.708;2023-05-01T11:46:31;9.35;;;7.90;;
31782;SDS011;18351;47.560;9.708;2023-05-01T11:49:01;9.85;;;8.13;;
31782;SDS011;18351;47.560;9.708;2023-05-01T11:51:28;8.90;;;7.68;;
31782;SDS011;18351;47.560;9.708;2023-05-01T11:54:07;8.00;;;7.30;;
31782;SDS011;18351;47.560;9.708;2023-05-01T11:56:34;10.48;;;8.13;;
31782;SDS011;18351;47.560;9.708;2023-05-01T11:59:11;11.93;;;8.57;;
31782;SDS011;18351;47.560;9.708;2023-05-01T12:01:40;10.55;;;8.32;;
31782;SDS011;18351;47.560;9.708;2023-05-01T12:04:08;9.45;;;8.52;;
31782;SDS011;18351;47.560;9.708;2023-05-01T12:06:38;9.77;;;8.85;;
31782;SDS011;18351;47.560;9.708;2023-05-01T12:11:40;11.25;;;8.60;;
31782;SDS011;18351;47.560;9.708;2023-05-01T12:14:06;12.15;;;9.25;;
31782;SDS011;18351;47.560;9.708;2023-05-01T12:16:32;10.77;;;9.65;;
31782;SDS011;18351;47.560;9.708;2023-05-01T12:18:58;12.02;;;10.05;;
31782;SDS011;18351;47.560;9.708;2023-05-01T12:21:24;8.75;;;7.85;;
31782;SDS011;18351;47.560;9.708;2023-05-01T12:23:51;9.25;;;8.00;;
31782;SDS011;18351;47.560;9.708;2023-05-01T12:26:19;9.73;;;7.95;;
31782;SDS011;18351;47.560;9.708;2023-05-01T12:28:55;8.98;;;7.68;;
31782;SDS011;18351;47.560;9.708;2023-05-01T12:31:22;7.97;;;7.18;;
31782;SDS011;18351;47.560;9.708;2023-05-01T12:33:52;7.85;;;6.68;;
31782;SDS011;18351;47.560;9.708;2023-05-01T12:36:23;7.75;;;6.68;;
31782;SDS011;18351;47.560;9.708;2023-05-01T12:38:54;6.55;;;5.85;;
31782;SDS011;18351;47.560;9.708;2023-05-01T12:41:31;8.73;;;7.00;;
31782;SDS011;18351;47.560;9.708;2023-05-01T12:43:59;9.27;;;6.55;;
31782;SDS011;18351;47.560;9.708;2023-05-01T12:46:25;7.50;;;6.80;;
31782;SDS011;18351;47.560;9.708;2023-05-01T12:48:52;9.18;;;8.20;;
31782;SDS011;18351;47.560;9.708;2023-05-01T12:51:19;13.10;;;11.82;;
31782;SDS011;18351;47.560;9.708;2023-05-01T12:53:45;8.98;;;7.95;;
31782;SDS011;18351;47.560;9.708;2023-05-01T12:56:21;7.03;;;6.35;;
31782;SDS011;18351;47.560;9.708;2023-05-01T12:58:48;8.88;;;8.00;;
31782;SDS011;18351;47.560;9.708;2023-05-01T13:01:24;9.13;;;8.23;;
31782;SDS011;18351;47.560;9.708;2023-05-01T13:03:51;9.05;;;8.05;;
31782;SDS011;18351;47.560;9.708;2023-05-01T13:06:18;7.78;;;6.78;;
31782;SDS011;18351;47.560;9.708;2023-05-01T13:08:44;12.30;;;9.20;;
31782;SDS011;18351;47.560;9.708;2023-05-01T13:13:40;7.40;;;6.70;;
31782;SDS011;18351;47.560;9.708;2023-05-01T13:16:08;6.40;;;5.68;;
31782;SDS011;18351;47.560;9.708;2023-05-01T13:18:49;7.18;;;6.45;;
31782;SDS011;18351;47.560;9.708;2023-05-01T13:21:17;15.30;;;7.45;;
31782;SDS011;18351;47.560;9.708;2023-05-01T13:23:51;6.60;;;5.68;;
31782;SDS011;18351;47.560;9.708;2023-05-01T13:26:23;6.47;;;5.68;;
31782;SDS011;18351;47.560;9.708;2023-05-01T13:28:55;8.43;;;6.40;;
31782;SDS011;18351;47.560;9.708;2023-05-01T13:31:21;6.32;;;5.30;;
31782;SDS011;18351;47.560;9.708;2023-05-01T13:33:48;6.30;;;4.78;;
31782;SDS011;18351;47.560;9.708;2023-05-01T13:36:16;6.30;;;4.43;;
31782;SDS011;18351;47.560;9.708;2023-05-01T13:38:45;5.15;;;4.65;;
31782;SDS011;18351;47.560;9.708;2023-05-01T13:41:15;4.32;;;3.85;;
31782;SDS011;18351;47.560;9.708;2023-05-01T13:43:48;3.70;;;3.40;;
31782;SDS011;18351;47.560;9.708;2023-05-01T13:46:16;4.10;;;3.50;;
31782;SDS011;18351;47.560;9.708;2023-05-01T13:48:43;3.80;;;3.50;;
31782;SDS011;18351;47.560;9.708;2023-05-01T13:51:10;4.70;;;4.10;;
31782;SDS011;18351;47.560;9.708;2023-05-01T13:53:38;4.60;;;4.20;;
31782;SDS011;18351;47.560;9.708;2023-05-01T13:56:08;5.32;;;4.50;;
31782;SDS011;18351;47.560;9.708;2023-05-01T13:58:37;4.40;;;4.00;;
31782;SDS011;18351;47.560;9.708;2023-05-01T14:01:03;4.25;;;3.85;;
31782;SDS011;18351;47.560;9.708;2023-05-01T14:03:39;4.32;;;3.60;;
31782;SDS011;18351;47.560;9.708;2023-05-01T14:06:26;4.28;;;3.88;;
31782;SDS011;18351;47.560;9.708;2023-05-01T14:08:54;3.20;;;2.92;;
31782;SDS011;18351;47.560;9.708;2023-05-01T14:11:23;4.28;;;3.63;;
31782;SDS011;18351;47.560;9.708;2023-05-01T14:13:49;3.75;;;3.40;;
31782;SDS011;18351;47.560;9.708;2023-05-01T14:16:25;4.38;;;3.67;;
31782;SDS011;18351;47.560;9.708;2023-05-01T14:18:52;4.18;;;3.58;;
31782;SDS011;18351;47.560;9.708;2023-05-01T14:21:20;4.25;;;3.85;;
31782;SDS011;18351;47.560;9.708;2023-05-01T14:23:51;5.00;;;4.28;;
31782;SDS011;18351;47.560;9.708;2023-05-01T14:26:17;5.20;;;4.70;;
31782;SDS011;18351;47.560;9.708;2023-05-01T14:28:44;4.35;;;3.95;;
31782;SDS011;18351;47.560;9.708;2023-05-01T14:31:29;5.32;;;4.70;;
31782;SDS011;18351;47.560;9.708;2023-05-01T14:33:56;4.97;;;4.43;;
31782;SDS011;18351;47.560;9.708;2023-05-01T14:36:23;4.15;;;3.75;;
31782;SDS011;18351;47.560;9.708;2023-05-01T14:38:54;4.15;;;3.70;;
31782;SDS011;18351;47.560;9.708;2023-05-01T14:41:20;4.40;;;4.00;;
31782;SDS011;18351;47.560;9.708;2023-05-01T14:43:46;4.55;;;3.72;;
31782;SDS011;18351;47.560;9.708;2023-05-01T14:46:25;5.72;;;3.00;;
31782;SDS011;18351;47.560;9.708;2023-05-01T14:48:53;3.08;;;2.88;;
31782;SDS011;18351;47.560;9.708;2023-05-01T14:51:19;8.13;;;3.10;;
31782;SDS011;18351;47.560;9.708;2023-05-01T14:53:45;4.10;;;3.70;;
31782;SDS011;18351;47.560;9.708;2023-05-01T14:56:10;4.80;;;3.60;;
31782;SDS011;18351;47.560;9.708;2023-05-01T14:58:37;3.45;;;3.15;;
31782;SDS011;18351;47.560;9.708;2023-05-01T15:01:03;4.72;;;3.58;;
31782;SDS011;18351;47.560;9.708;2023-05-01T15:03:28;4.95;;;3.72;;
31782;SDS011;18351;47.560;9.708;2023-05-01T15:05:54;4.50;;;3.55;;
31782;SDS011;18351;47.560;9.708;2023-05-01T15:08:20;5.22;;;3.03;;
31782;SDS011;18351;47.560;9.708;2023-05-01T15:10:46;3.55;;;2.67;;